Time;durP1;ratioP1;P1;durP2;ratioP2;P2;SDS_P1;SDS_P2;PMS_P1;PMS_P2;Temp;Humidity;BMP_temperature;BMP_pressure;BME280_temperature;BME280_humidity;BME280_pressure;Samples;Min_cycle;Max_cycle;Signal;HPM_P1;HPM_P2
2021/01/28 00:00:14;;;;;;;11.40;8.23;;;3.20;82.00;;;;;;6102181;29;20483;-57
2021/01/28 00:03:18;;;;;;;13.33;7.60;;;3.10;82.20;;;;;;6106735;29;20480;-58
2021/01/28 00:06:20;;;;;;;9.73;7.63;;;3.10;82.50;;;;;;6129923;29;20483;-57
2021/01/28 00:09:24;;;;;;;8.80;7.30;;;3.00;83.00;;;;;;6129582;28;20502;-55
2021/01/28 00:12:26;;;;;;;12.03;7.87;;;2.90;83.50;;;;;;6130303;28;20574;-56
2021/01/28 00:15:29;;;;;;;10.93;8.53;;;2.90;84.20;;;;;;6130401;29;21099;-56
2021/01/28 00:18:33;;;;;;;10.93;7.70;;;2.90;84.40;;;;;;6131134;29;20490;-56
2021/01/28 00:21:35;;;;;;;13.40;8.50;;;2.90;84.60;;;;;;6131525;29;20483;-57
2021/01/28 00:24:37;;;;;;;10.20;8.00;;;2.80;84.90;;;;;;6131711;29;20494;-56
2021/01/28 00:27:40;;;;;;;8.43;7.37;;;2.70;85.00;;;;;;6132371;29;20475;-56
2021/01/28 00:30:44;;;;;;;11.57;7.87;;;2.70;85.50;;;;;;6126144;29;20476;-55
2021/01/28 00:33:48;;;;;;;10.00;7.67;;;2.70;86.00;;;;;;6123533;29;20494;-56
2021/01/28 00:36:50;;;;;;;11.60;7.87;;;2.70;86.20;;;;;;6131497;29;20475;-55
2021/01/28 00:39:52;;;;;;;10.43;7.40;;;2.70;86.30;;;;;;6118224;29;20528;-55
2021/01/28 00:42:55;;;;;;;12.10;8.70;;;2.60;86.40;;;;;;6107898;29;20488;-55
2021/01/28 00:45:58;;;;;;;9.40;7.70;;;2.60;86.70;;;;;;6113262;29;20552;-56
2021/01/28 00:49:02;;;;;;;14.13;7.60;;;2.60;87.00;;;;;;6125528;29;20498;-56
2021/01/28 00:52:05;;;;;;;11.27;8.07;;;2.70;87.70;;;;;;6131184;29;20475;-56
2021/01/28 00:55:16;;;;;;;8.77;7.60;;;2.70;87.80;;;;;;6146114;29;20498;-56
2021/01/28 00:58:20;;;;;;;11.47;9.00;;;2.70;87.90;;;;;;6155121;28;20498;-56
2021/01/28 01:01:22;;;;;;;12.03;10.93;;;2.70;87.60;;;;;;6153738;29;20557;-56
2021/01/28 01:04:26;;;;;;;11.67;10.47;;;2.70;88.20;;;;;;6149347;28;21002;-56
2021/01/28 01:07:28;;;;;;;10.23;8.87;;;2.80;87.60;;;;;;6154642;29;20621;-56
2021/01/28 01:10:39;;;;;;;11.53;8.63;;;2.80;87.40;;;;;;6153969;29;20474;-57
2021/01/28 01:13:42;;;;;;;10.97;8.53;;;2.80;87.10;;;;;;6154266;29;20475;-56
2021/01/28 01:16:45;;;;;;;11.20;8.03;;;2.80;86.50;;;;;;6154282;29;20994;-56
2021/01/28 01:19:49;;;;;;;9.53;6.93;;;2.70;86.80;;;;;;6117415;28;20472;-56
2021/01/28 01:22:51;;;;;;;12.77;8.23;;;2.80;87.10;;;;;;6117059;29;20476;-57
2021/01/28 01:25:53;;;;;;;9.10;7.23;;;2.80;87.20;;;;;;6121698;28;20987;-56
2021/01/28 01:28:56;;;;;;;8.27;6.83;;;2.70;88.10;;;;;;6130117;28;20554;-57
2021/01/28 01:31:58;;;;;;;8.60;7.80;;;2.70;87.50;;;;;;6130485;28;20566;-57
2021/01/28 01:35:02;;;;;;;9.17;8.27;;;2.70;88.00;;;;;;6130552;28;20444;-57
2021/01/28 01:38:05;;;;;;;11.53;8.37;;;2.70;88.20;;;;;;6130338;28;20452;-56
2021/01/28 01:41:08;;;;;;;8.40;7.40;;;2.60;88.20;;;;;;6130398;28;20447;-56
2021/01/28 01:44:10;;;;;;;12.50;7.20;;;2.50;88.40;;;;;;6129979;28;20479;-56
2021/01/28 01:47:31;;;;;;;9.07;7.27;;;2.40;88.50;;;;;;6130234;28;20480;-56
2021/01/28 01:50:44;;;;;;;7.97;7.17;;;2.40;89.20;;;;;;6130029;28;20554;-57
2021/01/28 01:53:52;;;;;;;6.93;6.23;;;2.50;89.70;;;;;;6129955;28;20490;-57
2021/01/28 01:56:57;;;;;;;11.33;5.93;;;2.50;89.90;;;;;;6130076;28;20484;-56
2021/01/28 02:00:05;;;;;;;8.37;6.60;;;2.50;89.90;;;;;;6130081;28;20476;-56
2021/01/28 02:03:10;;;;;;;7.80;6.03;;;2.50;89.80;;;;;;6129548;28;20626;-57
2021/01/28 02:06:23;;;;;;;8.43;7.43;;;2.60;89.80;;;;;;6130028;28;20559;-57
2021/01/28 02:09:26;;;;;;;7.47;6.77;;;2.60;89.80;;;;;;6129324;28;20479;-57
2021/01/28 02:12:28;;;;;;;9.73;7.67;;;2.70;89.00;;;;;;6129553;28;20494;-56
2021/01/28 02:15:31;;;;;;;7.43;6.63;;;2.70;88.80;;;;;;6129521;28;20476;-57
2021/01/28 02:18:34;;;;;;;7.87;6.50;;;2.70;88.80;;;;;;6129369;28;20491;-57
2021/01/28 02:21:37;;;;;;;7.70;6.77;;;2.70;88.80;;;;;;6129030;28;20482;-57
2021/01/28 02:24:48;;;;;;;8.80;7.27;;;2.70;88.80;;;;;;6129253;28;20483;-56
2021/01/28 02:27:55;;;;;;;7.63;6.27;;;2.70;88.80;;;;;;6129227;28;20479;-57
2021/01/28 02:30:59;;;;;;;9.77;6.27;;;2.60;89.40;;;;;;6129213;28;20596;-57
2021/01/28 02:34:05;;;;;;;7.20;6.07;;;2.60;89.50;;;;;;6129160;28;20490;-56
2021/01/28 02:37:13;;;;;;;7.37;5.97;;;2.60;89.40;;;;;;6129163;28;20968;-56
2021/01/28 02:40:18;;;;;;;8.07;6.10;;;2.60;89.50;;;;;;6128801;28;20491;-56
2021/01/28 02:43:21;;;;;;;6.10;5.47;;;2.50;89.40;;;;;;6129087;28;20476;-56
2021/01/28 02:46:25;;;;;;;6.90;6.00;;;2.40;90.00;;;;;;6129496;28;20480;-56
2021/01/28 02:49:27;;;;;;;9.33;7.10;;;2.40;90.20;;;;;;6129709;28;20790;-57
2021/01/28 02:52:30;;;;;;;7.30;6.60;;;2.40;90.40;;;;;;6129247;28;20488;-57
2021/01/28 02:55:34;;;;;;;6.70;5.90;;;2.30;90.30;;;;;;6128820;28;20560;-57
2021/01/28 02:58:37;;;;;;;6.57;5.80;;;2.30;90.40;;;;;;6128716;28;21002;-56
2021/01/28 03:01:39;;;;;;;6.83;5.80;;;2.30;90.50;;;;;;6128834;28;20880;-56
2021/01/28 03:04:42;;;;;;;6.23;5.63;;;2.30;90.70;;;;;;6129008;28;20483;-57
2021/01/28 03:07:45;;;;;;;6.00;5.40;;;2.30;90.60;;;;;;6128746;28;20822;-57
2021/01/28 03:10:48;;;;;;;5.23;4.70;;;2.40;90.70;;;;;;6128441;28;20564;-57
2021/01/28 03:13:52;;;;;;;7.83;5.70;;;2.40;90.60;;;;;;6119764;28;20979;-56
2021/01/28 03:16:54;;;;;;;7.40;6.73;;;2.50;90.50;;;;;;6128705;28;20486;-57
2021/01/28 03:19:56;;;;;;;7.30;5.40;;;2.40;90.40;;;;;;6128228;28;20471;-56
2021/01/28 03:22:59;;;;;;;6.27;5.63;;;2.40;90.60;;;;;;6128868;28;20447;-56
2021/01/28 03:26:01;;;;;;;6.00;5.50;;;2.30;90.50;;;;;;6128781;28;20518;-56
2021/01/28 03:29:05;;;;;;;5.63;5.13;;;2.40;90.60;;;;;;6128796;28;20467;-57
2021/01/28 03:32:13;;;;;;;7.43;6.73;;;2.40;90.70;;;;;;6128813;28;20519;-57
2021/01/28 03:35:17;;;;;;;9.90;8.90;;;2.30;90.70;;;;;;6128327;28;20475;-56
2021/01/28 03:38:20;;;;;;;7.10;6.07;;;2.40;91.00;;;;;;6128222;28;20546;-56
2021/01/28 03:41:22;;;;;;;8.30;7.60;;;2.40;90.90;;;;;;6128227;28;20471;-56
2021/01/28 03:44:25;;;;;;;7.40;6.13;;;2.40;90.80;;;;;;6128603;28;20479;-56
2021/01/28 03:47:27;;;;;;;8.10;6.20;;;2.40;90.70;;;;;;6128292;28;20799;-56
2021/01/28 03:50:33;;;;;;;10.17;5.90;;;2.40;90.80;;;;;;6131681;28;20587;-56
2021/01/28 03:53:35;;;;;;;8.27;6.80;;;2.40;90.80;;;;;;6132694;28;20549;-56
2021/01/28 03:56:38;;;;;;;5.90;5.40;;;2.40;91.00;;;;;;6132354;28;20803;-56
2021/01/28 03:59:41;;;;;;;7.37;5.60;;;2.40;90.70;;;;;;6132477;28;20789;-54
2021/01/28 04:02:43;;;;;;;5.63;4.93;;;2.40;90.60;;;;;;6132084;28;20804;-55
2021/01/28 04:05:46;;;;;;;7.10;5.47;;;2.40;90.80;;;;;;6132155;28;20476;-56
2021/01/28 04:08:48;;;;;;;6.30;5.70;;;2.40;90.80;;;;;;6131951;28;20490;-56
2021/01/28 04:11:50;;;;;;;8.90;5.60;;;2.30;90.70;;;;;;6132436;28;20482;-55
2021/01/28 04:14:53;;;;;;;5.40;4.90;;;2.30;90.80;;;;;;6127561;28;20790;-55
2021/01/28 04:17:56;;;;;;;6.50;5.70;;;2.30;90.80;;;;;;6132095;28;20480;-55
2021/01/28 04:20:58;;;;;;;8.83;5.50;;;2.20;90.80;;;;;;6131744;28;20475;-56
2021/01/28 04:24:00;;;;;;;6.33;5.60;;;2.10;91.10;;;;;;6131979;28;20486;-56
2021/01/28 04:27:03;;;;;;;5.40;4.80;;;2.10;91.40;;;;;;6131889;28;20479;-56
2021/01/28 04:30:09;;;;;;;5.77;5.20;;;2.10;91.30;;;;;;6132086;28;20611;-55
2021/01/28 04:33:12;;;;;;;14.13;7.37;;;2.10;91.40;;;;;;6132256;28;20486;-56
2021/01/28 04:36:14;;;;;;;5.17;4.70;;;2.00;91.30;;;;;;6131847;28;20483;-56
2021/01/28 04:39:17;;;;;;;9.07;5.30;;;2.10;91.50;;;;;;6131693;28;20472;-56
2021/01/28 04:42:23;;;;;;;5.10;4.60;;;2.00;91.50;;;;;;6131672;28;20475;-56
2021/01/28 04:45:30;;;;;;;5.93;4.90;;;1.90;91.60;;;;;;6131682;28;20960;-56
2021/01/28 04:48:34;;;;;;;5.77;5.17;;;1.90;91.70;;;;;;6131568;28;20995;-57
2021/01/28 04:51:36;;;;;;;6.10;5.50;;;1.90;91.90;;;;;;6131671;28;20479;-56
2021/01/28 04:54:39;;;;;;;6.23;5.27;;;1.90;91.90;;;;;;6131387;28;20471;-55
2021/01/28 04:57:42;;;;;;;5.90;5.30;;;1.80;92.00;;;;;;6131466;28;20498;-55
2021/01/28 05:00:47;;;;;;;5.97;4.80;;;1.80;92.00;;;;;;6131230;28;20476;-55
2021/01/28 05:03:52;;;;;;;5.47;4.93;;;1.80;92.00;;;;;;6131112;28;20755;-57
2021/01/28 05:06:55;;;;;;;6.50;5.13;;;1.80;92.10;;;;;;6131243;28;20487;-55
2021/01/28 05:10:11;;;;;;;5.87;5.33;;;1.80;92.20;;;;;;6130735;28;20502;-55
2021/01/28 05:13:25;;;;;;;8.83;6.90;;;1.70;92.30;;;;;;6130769;28;20963;-55
2021/01/28 05:16:41;;;;;;;11.20;6.87;;;1.60;92.60;;;;;;6130777;28;20959;-55
2021/01/28 05:19:47;;;;;;;12.00;6.70;;;1.50;92.80;;;;;;6125885;28;20876;-55
2021/01/28 05:22:58;;;;;;;8.40;6.60;;;1.40;93.20;;;;;;6130479;28;20567;-55
2021/01/28 05:26:01;;;;;;;8.23;6.87;;;1.40;93.50;;;;;;6130673;28;20452;-55
2021/01/28 05:29:20;;;;;;;9.90;6.93;;;1.30;93.70;;;;;;6130229;28;20468;-56
2021/01/28 05:32:37;;;;;;;13.10;8.13;;;1.30;93.90;;;;;;6130616;28;20483;-56
2021/01/28 05:35:39;;;;;;;9.10;7.30;;;1.10;94.20;;;;;;6130541;28;20555;-55
2021/01/28 05:38:44;;;;;;;9.10;8.20;;;1.10;94.50;;;;;;6130037;28;20476;-56
2021/01/28 05:41:49;;;;;;;14.90;9.20;;;1.00;94.90;;;;;;6130254;28;20474;-57
2021/01/28 05:44:52;;;;;;;11.87;9.90;;;1.00;95.30;;;;;;6129947;28;20963;-55
2021/01/28 05:48:20;;;;;;;11.10;8.30;;;1.00;95.60;;;;;;6130210;28;20472;-56
2021/01/28 05:51:23;;;;;;;9.83;8.37;;;1.00;96.10;;;;;;6129837;28;20582;-57
2021/01/28 05:54:27;;;;;;;9.57;6.90;;;1.00;96.30;;;;;;6129684;28;20479;-57
2021/01/28 05:57:34;;;;;;;8.90;8.10;;;1.10;96.30;;;;;;6129896;28;20475;-56
2021/01/28 06:00:42;;;;;;;11.37;8.30;;;1.10;96.40;;;;;;6129844;28;20506;-57
2021/01/28 06:04:25;;;;;;;12.53;8.20;;;1.00;96.30;;;;;;6129473;28;20864;-55
2021/01/28 06:08:06;;;;;;;11.17;8.70;;;1.00;96.40;;;;;;6130105;28;20797;-57
2021/01/28 06:11:27;;;;;;;8.77;7.87;;;1.10;96.30;;;;;;6129226;28;20479;-56
2021/01/28 06:14:49;;;;;;;10.93;8.13;;;1.10;96.00;;;;;;6126569;28;20968;-56
2021/01/28 06:18:16;;;;;;;9.33;7.30;;;1.10;95.80;;;;;;6108126;29;20481;-56
2021/01/28 06:21:49;;;;;;;7.80;6.20;;;1.10;95.90;;;;;;6100200;29;20464;-56
2021/01/28 06:25:08;;;;;;;12.70;7.20;;;1.10;95.70;;;;;;6104299;29;20812;-56
2021/01/28 06:28:32;;;;;;;7.50;6.47;;;1.10;95.80;;;;;;6129178;28;20484;-56
2021/01/28 06:31:45;;;;;;;7.90;5.87;;;1.20;95.80;;;;;;6129500;28;21010;-56
2021/01/28 06:35:10;;;;;;;10.20;7.00;;;1.00;95.70;;;;;;6129320;28;20566;-57
2021/01/28 06:38:38;;;;;;;7.20;6.10;;;1.00;96.10;;;;;;6128795;28;20779;-57
2021/01/28 06:41:47;;;;;;;9.70;8.00;;;1.00;96.40;;;;;;6129314;28;20480;-56
2021/01/28 06:44:59;;;;;;;10.03;8.27;;;1.00;96.20;;;;;;6129113;28;20954;-56
2021/01/28 06:48:06;;;;;;;15.47;10.43;;;1.10;96.20;;;;;;6129073;28;20471;-56
2021/01/28 06:51:18;;;;;;;11.63;10.13;;;1.20;96.00;;;;;;6129019;28;20860;-56
2021/01/28 06:54:28;;;;;;;14.43;8.90;;;1.30;95.70;;;;;;6129076;28;20476;-57
2021/01/28 06:57:40;;;;;;;10.40;7.77;;;1.40;95.40;;;;;;6129331;28;20486;-56
2021/01/28 07:00:47;;;;;;;9.73;6.83;;;1.40;95.40;;;;;;6128707;28;20494;-56
2021/01/28 07:04:04;;;;;;;7.27;6.57;;;1.50;95.10;;;;;;6128951;28;20538;-56
2021/01/28 07:07:12;;;;;;;8.93;7.30;;;1.50;95.20;;;;;;6128915;28;20556;-56
2021/01/28 07:10:20;;;;;;;9.03;7.10;;;1.60;94.80;;;;;;6128858;28;20490;-56
2021/01/28 07:13:28;;;;;;;8.40;7.60;;;1.70;94.70;;;;;;6128729;28;20487;-56
2021/01/28 07:16:38;;;;;;;9.83;7.50;;;1.80;94.60;;;;;;6128574;28;20574;-57
2021/01/28 07:19:49;;;;;;;8.53;7.70;;;1.90;94.50;;;;;;6128604;28;20999;-56
2021/01/28 07:22:54;;;;;;;10.70;8.60;;;2.00;94.40;;;;;;6128538;28;20479;-56
2021/01/28 07:26:14;;;;;;;11.10;8.80;;;2.10;94.30;;;;;;6132279;28;20471;-56
2021/01/28 07:29:53;;;;;;;12.07;7.47;;;2.20;94.10;;;;;;6133139;28;20484;-57
2021/01/28 07:32:58;;;;;;;9.77;7.20;;;2.40;93.70;;;;;;6132928;28;20523;-56
2021/01/28 07:36:38;;;;;;;12.63;7.30;;;2.50;93.50;;;;;;6132677;28;20471;-57
2021/01/28 07:39:41;;;;;;;8.57;7.70;;;2.60;93.30;;;;;;6132524;28;20825;-56
2021/01/28 07:43:02;;;;;;;8.57;6.50;;;2.80;93.20;;;;;;6132888;28;20993;-56
2021/01/28 07:46:13;;;;;;;10.23;7.03;;;2.90;92.90;;;;;;6132606;28;20484;-56
2021/01/28 07:49:19;;;;;;;10.70;7.80;;;3.00;92.80;;;;;;6132364;28;20480;-56
2021/01/28 07:52:38;;;;;;;12.43;8.93;;;3.20;92.60;;;;;;6132641;28;20488;-56
2021/01/28 07:55:42;;;;;;;8.20;7.33;;;3.40;92.30;;;;;;6132507;28;20501;-56
2021/01/28 07:58:50;;;;;;;12.20;8.73;;;3.50;91.50;;;;;;6132169;28;20495;-57
2021/01/28 08:01:55;;;;;;;8.83;7.03;;;3.60;91.10;;;;;;6132157;28;20486;-56
2021/01/28 08:05:06;;;;;;;8.03;6.00;;;3.70;90.90;;;;;;6131874;28;20574;-58
2021/01/28 08:08:11;;;;;;;10.77;5.93;;;3.70;90.60;;;;;;6132033;28;20891;-57
2021/01/28 08:11:17;;;;;;;12.77;6.70;;;3.60;90.30;;;;;;6132219;28;20447;-57
2021/01/28 08:14:22;;;;;;;8.50;5.63;;;3.70;90.20;;;;;;6132401;28;20464;-57
2021/01/28 08:17:31;;;;;;;7.27;6.20;;;3.90;90.20;;;;;;6132002;28;20908;-57
2021/01/28 08:20:34;;;;;;;8.23;6.30;;;4.00;89.60;;;;;;6131901;28;20535;-57
2021/01/28 08:23:38;;;;;;;8.63;6.23;;;4.00;89.10;;;;;;6131427;28;20490;-58
2021/01/28 08:26:42;;;;;;;11.67;8.50;;;4.10;89.20;;;;;;6131819;28;20490;-57
2021/01/28 08:29:45;;;;;;;9.27;7.73;;;4.20;88.80;;;;;;6131638;28;20484;-58
2021/01/28 08:32:55;;;;;;;10.47;7.50;;;4.30;89.00;;;;;;6131709;28;20468;-57
2021/01/28 08:36:01;;;;;;;10.10;7.67;;;4.40;88.50;;;;;;6131673;28;20479;-57
2021/01/28 08:39:09;;;;;;;9.00;6.70;;;4.50;88.00;;;;;;6131592;28;20479;-57
2021/01/28 08:42:15;;;;;;;7.30;6.60;;;4.60;88.40;;;;;;6131651;28;20476;-57
2021/01/28 08:45:23;;;;;;;22.23;7.43;;;4.60;87.00;;;;;;6131894;28;20540;-57
2021/01/28 08:48:28;;;;;;;8.27;6.10;;;4.60;86.30;;;;;;6126542;29;20984;-58
2021/01/28 08:51:31;;;;;;;7.80;7.00;;;4.60;86.10;;;;;;6122348;29;20486;-57
2021/01/28 08:54:37;;;;;;;12.83;8.97;;;4.40;85.80;;;;;;6110404;29;20992;-58
2021/01/28 08:57:39;;;;;;;23.93;9.53;;;4.50;86.00;;;;;;6117982;29;20472;-57
2021/01/28 09:00:45;;;;;;;9.03;5.90;;;4.50;85.60;;;;;;6130696;29;20480;-57
2021/01/28 09:04:07;;;;;;;9.43;6.20;;;4.60;85.70;;;;;;6130807;29;20820;-57
2021/01/28 09:07:10;;;;;;;9.87;6.10;;;4.30;84.50;;;;;;6112291;29;20481;-58
2021/01/28 09:10:22;;;;;;;10.97;6.50;;;4.20;84.90;;;;;;6106904;29;20492;-57
2021/01/28 09:13:28;;;;;;;9.87;6.57;;;4.20;84.40;;;;;;6107121;29;20540;-57
2021/01/28 09:16:31;;;;;;;6.63;5.70;;;4.30;84.60;;;;;;6106861;29;20481;-57
2021/01/28 09:19:38;;;;;;;7.40;5.33;;;4.40;84.50;;;;;;6106890;29;20473;-56
2021/01/28 09:22:41;;;;;;;9.17;5.80;;;4.40;83.80;;;;;;6112782;29;20475;-56
2021/01/28 09:25:45;;;;;;;10.23;6.00;;;4.40;83.10;;;;;;6130193;29;20475;-56
2021/01/28 09:28:48;;;;;;;8.87;5.80;;;4.40;83.40;;;;;;6130063;29;21034;-57
2021/01/28 09:31:51;;;;;;;10.03;6.77;;;4.40;83.30;;;;;;6130256;28;20506;-57
2021/01/28 09:35:09;;;;;;;13.80;7.43;;;4.40;83.20;;;;;;6129763;29;20490;-57
2021/01/28 09:38:14;;;;;;;8.83;5.53;;;4.50;83.30;;;;;;6122747;29;20473;-60
2021/01/28 09:41:20;;;;;;;15.33;6.83;;;4.50;82.00;;;;;;6120821;29;20448;-58
2021/01/28 09:44:32;;;;;;;17.23;7.60;;;4.70;82.30;;;;;;6126561;29;20534;-57
2021/01/28 09:47:35;;;;;;;14.27;7.50;;;4.90;82.10;;;;;;6128940;29;20492;-59
2021/01/28 09:50:39;;;;;;;15.03;7.83;;;5.00;81.00;;;;;;6129561;29;20475;-59
2021/01/28 09:54:00;;;;;;;10.27;6.50;;;5.40;80.70;;;;;;6105853;29;20480;-58
2021/01/28 09:57:04;;;;;;;13.90;6.37;;;5.60;79.10;;;;;;6106025;29;20479;-60
2021/01/28 10:00:09;;;;;;;10.27;7.67;;;6.00;78.60;;;;;;6116991;29;20471;-57
2021/01/28 10:03:15;;;;;;;12.80;7.70;;;6.30;77.10;;;;;;6129581;29;20468;-56
2021/01/28 10:06:19;;;;;;;11.80;8.23;;;6.60;75.60;;;;;;6129762;29;20553;-57
2021/01/28 10:09:21;;;;;;;13.30;9.70;;;7.10;74.40;;;;;;6129554;29;20484;-57
2021/01/28 10:12:27;;;;;;;14.17;9.20;;;7.70;73.20;;;;;;6129378;29;20568;-55
2021/01/28 10:15:29;;;;;;;15.70;8.67;;;8.70;71.30;;;;;;6129488;29;20546;-56
2021/01/28 10:18:31;;;;;;;13.00;8.20;;;11.20;64.70;;;;;;6129118;29;20810;-56
2021/01/28 10:21:37;;;;;;;9.70;8.10;;;15.30;54.80;;;;;;6128869;29;20972;-58
2021/01/28 10:24:39;;;;;;;10.33;7.80;;;18.90;42.40;;;;;;6120996;28;21006;-59
2021/01/28 10:27:41;;;;;;;12.53;7.27;;;19.90;35.70;;;;;;6124589;28;20558;-58
2021/01/28 10:30:44;;;;;;;11.73;7.43;;;18.20;34.20;;;;;;6122351;29;20508;-60
2021/01/28 10:33:47;;;;;;;8.83;7.03;;;17.10;35.60;;;;;;6105578;29;20477;-60
2021/01/28 10:36:50;;;;;;;9.60;7.63;;;18.00;34.90;;;;;;6119480;29;20813;-60
2021/01/28 10:39:53;;;;;;;9.77;7.30;;;18.50;33.40;;;;;;6128751;29;20476;-60
2021/01/28 10:42:57;;;;;;;8.80;7.20;;;18.60;32.30;;;;;;6129061;29;20495;-59
2021/01/28 10:46:00;;;;;;;14.27;7.33;;;18.70;32.40;;;;;;6125838;29;20531;-58
2021/01/28 10:49:02;;;;;;;14.03;11.27;;;19.20;31.70;;;;;;6128809;29;20472;-58
2021/01/28 10:52:06;;;;;;;11.13;9.77;;;19.00;31.80;;;;;;6128579;29;20523;-59
2021/01/28 10:55:09;;;;;;;12.43;7.80;;;17.20;33.10;;;;;;6128786;29;20479;-60
2021/01/28 10:58:13;;;;;;;12.27;8.63;;;16.10;34.80;;;;;;6130147;29;20481;-58
2021/01/28 11:01:15;;;;;;;14.07;9.63;;;15.20;36.20;;;;;;6133882;29;20471;-59
2021/01/28 11:04:17;;;;;;;13.17;8.40;;;14.40;37.60;;;;;;6133586;29;20486;-59
2021/01/28 11:07:20;;;;;;;12.93;8.30;;;13.90;37.50;;;;;;6133840;29;20823;-58
2021/01/28 11:10:25;;;;;;;9.17;7.33;;;12.90;38.50;;;;;;6133316;29;20483;-59
2021/01/28 11:13:27;;;;;;;20.57;10.03;;;12.60;39.80;;;;;;6133251;29;20483;-56
2021/01/28 11:16:34;;;;;;;10.47;9.27;;;12.10;40.70;;;;;;6133218;29;20479;-56
2021/01/28 11:19:36;;;;;;;10.23;7.70;;;11.80;41.40;;;;;;6133199;29;20512;-56
2021/01/28 11:22:39;;;;;;;9.93;7.13;;;11.20;41.80;;;;;;6132830;29;20515;-56
2021/01/28 11:25:42;;;;;;;11.57;8.10;;;10.50;42.80;;;;;;6133021;29;20526;-56
2021/01/28 11:28:45;;;;;;;15.17;8.40;;;10.00;44.20;;;;;;6122025;29;20928;-57
2021/01/28 11:31:47;;;;;;;8.83;7.93;;;9.70;45.80;;;;;;6109022;29;20563;-57
2021/01/28 11:34:49;;;;;;;9.70;8.27;;;9.40;46.70;;;;;;6109584;29;20491;-59
2021/01/28 11:37:52;;;;;;;13.37;8.70;;;9.00;48.10;;;;;;6132660;29;20547;-58
2021/01/28 11:40:55;;;;;;;12.93;9.03;;;8.50;49.60;;;;;;6132372;29;20490;-57
2021/01/28 11:43:59;;;;;;;11.23;8.57;;;8.30;50.30;;;;;;6127033;28;20482;-58
2021/01/28 11:47:01;;;;;;;16.70;8.23;;;8.20;50.30;;;;;;6109428;29;20464;-58
2021/01/28 11:50:04;;;;;;;7.87;7.07;;;8.10;51.20;;;;;;6108988;29;20604;-59
2021/01/28 11:53:08;;;;;;;9.30;6.47;;;8.10;53.30;;;;;;6108888;29;20484;-57
2021/01/28 11:56:10;;;;;;;10.33;6.80;;;8.10;52.50;;;;;;6109784;29;20917;-55
2021/01/28 11:59:12;;;;;;;8.03;6.27;;;8.10;52.60;;;;;;6132168;29;20479;-57
2021/01/28 12:02:15;;;;;;;8.20;6.73;;;8.10;51.00;;;;;;6132122;29;20908;-56
2021/01/28 12:05:20;;;;;;;7.60;6.53;;;7.80;51.30;;;;;;6132195;29;20592;-58
2021/01/28 12:08:24;;;;;;;8.37;6.50;;;7.40;52.10;;;;;;6132308;29;20558;-57
2021/01/28 12:11:27;;;;;;;12.27;6.93;;;7.20;53.20;;;;;;6131151;29;20800;-58
2021/01/28 12:14:31;;;;;;;8.60;6.33;;;7.50;53.40;;;;;;6131636;29;20483;-58
2021/01/28 12:17:34;;;;;;;17.40;7.33;;;7.70;52.90;;;;;;6131818;29;20794;-56
2021/01/28 12:20:36;;;;;;;13.23;7.00;;;7.90;52.20;;;;;;6131439;29;20988;-56
2021/01/28 12:23:39;;;;;;;8.83;6.80;;;8.00;52.40;;;;;;6131598;29;20809;-56
2021/01/28 12:26:41;;;;;;;8.43;6.37;;;8.10;51.00;;;;;;6131546;29;20807;-55
2021/01/28 12:29:44;;;;;;;7.93;7.10;;;8.00;50.70;;;;;;6113243;29;20990;-57
2021/01/28 12:32:46;;;;;;;10.50;7.27;;;7.80;50.80;;;;;;6107972;29;20480;-58
2021/01/28 12:35:49;;;;;;;11.13;6.13;;;7.60;51.50;;;;;;6116654;28;20977;-55
2021/01/28 12:38:52;;;;;;;7.67;5.80;;;7.60;52.20;;;;;;6131323;29;20487;-58
2021/01/28 12:41:55;;;;;;;9.33;6.90;;;7.50;52.40;;;;;;6131785;28;20612;-57
2021/01/28 12:44:57;;;;;;;10.60;6.47;;;7.60;52.80;;;;;;6126472;29;21053;-57
2021/01/28 12:47:59;;;;;;;9.27;5.67;;;7.60;52.70;;;;;;6131384;28;20491;-56
2021/01/28 12:51:02;;;;;;;11.33;7.80;;;7.60;52.40;;;;;;6131129;29;20590;-56
2021/01/28 12:54:06;;;;;;;10.10;6.50;;;7.70;52.10;;;;;;6130885;29;20479;-57
2021/01/28 12:57:08;;;;;;;8.50;5.70;;;7.60;52.10;;;;;;6131124;28;20483;-57
2021/01/28 13:00:14;;;;;;;10.90;6.70;;;7.50;52.10;;;;;;6120419;29;20575;-56
2021/01/28 13:03:16;;;;;;;7.60;5.70;;;7.50;52.40;;;;;;6118510;29;20471;-59
2021/01/28 13:06:18;;;;;;;16.07;7.60;;;7.50;52.40;;;;;;6129148;29;20471;-56
2021/01/28 13:09:21;;;;;;;6.77;5.73;;;7.30;52.50;;;;;;6106843;29;20945;-55
2021/01/28 13:12:24;;;;;;;9.00;6.10;;;7.30;52.90;;;;;;6106962;29;20488;-57
2021/01/28 13:15:28;;;;;;;8.10;5.47;;;7.20;53.00;;;;;;6113423;29;20523;-58
2021/01/28 13:18:30;;;;;;;10.00;5.93;;;6.90;53.00;;;;;;6130559;29;20596;-57
2021/01/28 13:21:33;;;;;;;6.13;5.53;;;6.70;53.50;;;;;;6129342;29;20619;-57
2021/01/28 13:24:36;;;;;;;6.10;5.53;;;6.70;52.80;;;;;;6130254;29;20479;-56
2021/01/28 13:27:38;;;;;;;9.40;4.60;;;6.60;53.00;;;;;;6130427;29;20486;-56
2021/01/28 13:30:41;;;;;;;6.03;4.60;;;6.60;52.80;;;;;;6129933;29;20997;-57
2021/01/28 13:33:44;;;;;;;6.67;4.80;;;6.50;52.70;;;;;;6114049;29;20825;-59
2021/01/28 13:36:46;;;;;;;4.53;4.13;;;6.50;52.70;;;;;;6106374;29;20804;-57
2021/01/28 13:39:49;;;;;;;6.43;4.37;;;6.50;52.80;;;;;;6106476;29;20571;-57
2021/01/28 13:42:52;;;;;;;15.67;5.90;;;6.50;52.80;;;;;;6106285;29;20472;-57
2021/01/28 13:45:54;;;;;;;7.47;5.60;;;6.50;53.30;;;;;;6126304;29;20474;-56
2021/01/28 13:48:56;;;;;;;5.60;5.00;;;6.40;53.60;;;;;;6129973;28;20546;-57
2021/01/28 13:51:59;;;;;;;7.57;5.60;;;6.50;53.80;;;;;;6121161;29;20498;-56
2021/01/28 13:55:02;;;;;;;8.07;5.67;;;6.50;53.90;;;;;;6129506;28;20975;-57
2021/01/28 13:58:04;;;;;;;7.87;5.93;;;6.40;53.80;;;;;;6129273;29;20543;-57
2021/01/28 14:01:06;;;;;;;8.60;5.40;;;6.40;54.30;;;;;;6129412;29;20491;-56
2021/01/28 14:04:09;;;;;;;6.63;5.10;;;6.40;54.30;;;;;;6129128;29;20582;-57
2021/01/28 14:07:11;;;;;;;10.10;5.70;;;6.20;54.40;;;;;;6129307;29;20500;-57
2021/01/28 14:10:21;;;;;;;5.80;4.77;;;6.10;54.90;;;;;;6129236;29;20479;-56
2021/01/28 14:13:24;;;;;;;6.37;4.90;;;6.10;55.10;;;;;;6129587;29;20480;-57
2021/01/28 14:16:26;;;;;;;6.80;5.30;;;6.00;55.40;;;;;;6128964;29;20481;-56
2021/01/28 14:19:29;;;;;;;7.00;5.87;;;6.00;55.70;;;;;;6129198;29;20987;-57
2021/01/28 14:22:34;;;;;;;11.57;6.30;;;6.00;56.10;;;;;;6128766;29;20544;-57
2021/01/28 14:25:37;;;;;;;17.37;9.20;;;5.90;56.40;;;;;;6129008;29;20476;-56
2021/01/28 14:28:40;;;;;;;10.30;7.33;;;5.80;57.40;;;;;;6128684;29;20480;-57
2021/01/28 14:31:42;;;;;;;6.57;6.00;;;5.80;57.00;;;;;;6128892;29;20567;-56
2021/01/28 14:34:45;;;;;;;9.73;6.53;;;5.70;57.10;;;;;;6128118;29;20486;-57
2021/01/28 14:37:51;;;;;;;11.77;6.90;;;5.50;57.80;;;;;;6128594;29;20476;-56
2021/01/28 14:40:55;;;;;;;9.67;6.10;;;5.50;58.20;;;;;;6128411;29;20482;-56
2021/01/28 14:43:58;;;;;;;9.43;6.57;;;5.60;58.50;;;;;;6121066;29;20468;-57
2021/01/28 14:47:00;;;;;;;9.40;6.60;;;5.60;58.90;;;;;;6104713;29;20464;-57
2021/01/28 14:50:04;;;;;;;9.83;6.83;;;5.50;59.10;;;;;;6104767;29;20936;-58
2021/01/28 14:53:07;;;;;;;9.87;6.33;;;5.60;59.50;;;;;;6096481;29;20568;-57
2021/01/28 14:56:10;;;;;;;9.93;6.77;;;5.60;60.00;;;;;;6105579;29;20444;-57
2021/01/28 14:59:12;;;;;;;7.67;6.37;;;5.60;60.20;;;;;;6128700;29;20606;-57
2021/01/28 15:02:15;;;;;;;8.87;7.03;;;5.70;60.50;;;;;;6128736;28;20458;-57
2021/01/28 15:05:18;;;;;;;13.40;7.53;;;5.70;59.90;;;;;;6146000;29;20457;-57
2021/01/28 15:08:21;;;;;;;13.70;9.17;;;5.70;60.20;;;;;;6136114;29;20813;-57
2021/01/28 15:11:24;;;;;;;7.23;6.50;;;5.70;60.50;;;;;;6142989;29;20459;-58
2021/01/28 15:14:26;;;;;;;12.97;8.40;;;5.70;60.50;;;;;;6151747;29;20467;-56
2021/01/28 15:17:28;;;;;;;12.30;7.40;;;5.60;61.20;;;;;;6152175;29;20614;-57
2021/01/28 15:20:31;;;;;;;9.40;6.67;;;5.60;61.50;;;;;;6151703;28;21019;-56
2021/01/28 15:23:33;;;;;;;10.90;6.60;;;5.70;61.80;;;;;;6151981;29;20918;-57
2021/01/28 15:26:36;;;;;;;14.37;7.10;;;5.60;61.90;;;;;;6152276;29;20475;-58
2021/01/28 15:29:38;;;;;;;19.20;7.53;;;5.50;61.70;;;;;;6152265;29;20800;-57
2021/01/28 15:32:41;;;;;;;7.80;6.60;;;5.60;61.90;;;;;;6152392;28;20474;-57
2021/01/28 15:35:45;;;;;;;7.30;6.60;;;5.60;62.30;;;;;;6152348;29;20822;-57
2021/01/28 15:38:48;;;;;;;11.70;7.53;;;5.60;62.70;;;;;;6139519;29;20982;-57
2021/01/28 15:41:51;;;;;;;9.30;7.30;;;5.60;62.60;;;;;;6128190;29;20912;-57
2021/01/28 15:44:53;;;;;;;10.00;6.90;;;5.50;62.70;;;;;;6117119;29;20483;-57
2021/01/28 15:47:56;;;;;;;13.80;8.50;;;5.60;62.80;;;;;;6109527;29;20472;-57
2021/01/28 15:50:59;;;;;;;11.53;7.90;;;5.70;62.90;;;;;;6109077;29;20564;-58
2021/01/28 15:54:01;;;;;;;9.87;8.27;;;5.70;62.60;;;;;;6108786;29;20856;-58
2021/01/28 15:57:05;;;;;;;9.33;8.10;;;5.70;62.40;;;;;;6113301;29;20471;-70
2021/01/28 16:00:09;;;;;;;11.77;6.80;;;5.70;62.50;;;;;;6132014;28;20472;-57
2021/01/28 16:03:12;;;;;;;10.27;7.70;;;5.80;62.90;;;;;;6132221;29;20835;-58
2021/01/28 16:06:16;;;;;;;12.10;7.40;;;5.70;63.00;;;;;;6132126;29;20826;-57
2021/01/28 16:09:20;;;;;;;8.07;7.37;;;5.70;63.00;;;;;;6131987;29;20582;-56
2021/01/28 16:12:23;;;;;;;9.00;7.67;;;5.60;63.30;;;;;;6132017;29;20483;-57